Historyczne dane pomiarowe

Dodano dane terminowe – wersja testowa.

Dane z okresu 1951-2019

Wersja bazy: 1.34 [2019-03-16, lista zmian], aktualizacja planowana na 2019-04-15

Dane meteo z obszaru Polski uzyskane na podstawie danych udostępnionych przez Instytut Meteorologii i Gospodarki Wodnej – Państwowy Instytut Badawczy.

 

Wybierz Datę:    

       

TemperaturaWilgotnośćWiatrCiśnienieOpadyŚniegCzas trwania zjawisk
 Stacja t tx tn tng RH VA  wxwx mslp ppp RRR   cm mm wxwxwxwxwxwxwx
1958-05-15 14.6 21.0 10.8 10.3 80.3- 6.0 2.7---- 3.4------------
1958-05-16 14.6 19.1 8.7 4.5 80.0- 6.3 1.3---- 10.6------------
1958-05-17 9.3 14.4 7.5 6.1 82.8- 6.0 5.3---- 9.7------------
1958-05-18 9.0 12.0 4.6 2.3 75.8- 5.7 5.0---- 3.5------------
1958-05-19 9.0 13.5 7.1 5.5 74.5- 3.0 4.3---- 0.0------------
1958-05-20 16.3 22.2 3.2 -2.5 62.0- 4.7 2.3---- 0.0------------
1958-05-21 13.8 21.8 8.6 9.2 77.3- 7.3 3.3---- 3.2------------
1958-05-22 10.4 13.8 7.1 6.1 70.5- 5.7 2.3---- 0.0------------
1958-05-23 8.9 11.7 4.0 0.1 83.5- 6.3 1.3---- 9.0------------
1958-05-24 11.7 17.7 5.8 3.9 87.5- 4.3 2.0---- 0.0------------
1958-05-25 20.0 26.6 5.4 2.5 66.5- 0.0 1.7---- 0.0------------
1958-05-26 21.7 30.3 12.8 7.9 72.8- 3.3 2.0---- 7.6------------
1958-05-27 15.0 19.3 11.9 9.2 81.3- 6.3 1.7---- 20.4------------
1958-05-28 13.7 24.6 9.6 8.5 88.5- 5.7 3.0---- 0.1------------
1958-05-29 11.5 16.2 8.5 8.1 75.8- 3.3 2.7---- 0.0------------
1958-05-30 13.7 19.2 2.7 0.6 59.0- 3.7 2.0---- 0.0------------
1958-05-31 16.1 20.4 10.3 7.2 72.5- 7.0 3.0---- 12.3------------
1958-06-01 13.4 17.6 10.7 13.1 95.3- 7.7 1.7---- 6.0------------
1958-06-02 10.4 11.9 9.1 11.7 94.8- 8.0 2.3---- 0.0------------
1958-06-03 9.9 13.7 8.1 9.0 95.8- 8.0 0.7---- 0.0------------
1958-06-04 12.1 19.5 5.4 5.2 83.5- 3.3 1.7---- 0.0------------
1958-06-05 8.3 11.9 5.8 4.0 80.8- 5.3 3.3---- 0.4------------
1958-06-06 7.8 11.7 0.5 -2.6 64.3- 2.0 3.0---- 0.0------------
1958-06-07 12.4 17.7 -0.5 -3.0 67.0- 0.0 1.3---- 0.0------------
1958-06-08 16.3 21.4 6.5 1.0 72.3- 4.7 2.3---- 0.7------------
1958-06-09 14.4 17.7 11.6 7.4 80.0- 5.0 2.0---- 4.8------------
1958-06-10 11.4 13.4 9.5 11.4 80.3- 6.3 3.0---- 0.0------------
1958-06-11 8.6 11.2 7.0 5.0 85.5- 6.0 1.7---- 0.0------------
1958-06-12 10.1 14.8 0.7 -2.3 69.3- 0.7 2.7---- 0.0------------
1958-06-13 11.9 17.7 0.1 -2.8 67.8- 2.7 2.3---- 0.0------------
191.2 ms

 

Źródłem pochodzenia danych jest Instytut Meteorologii i Gospodarki Wodnej – Państwowy Instytut Badawczy. Dane Instytutu Meteorologii i Gospodarki Wodnej – Państwowego Instytutu Badawczego zostały przetworzone.

Dane źródłowe można odnaleźć na stronie https://dane.imgw.pl